Time;durP1;ratioP1;P1;durP2;ratioP2;P2;SDS_P1;SDS_P2;PMS_P1;PMS_P2;Temp;Humidity;BMP_temperature;BMP_pressure;BME280_temperature;BME280_humidity;BME280_pressure;Samples;Min_cycle;Max_cycle;Signal;HPM_P1;HPM_P2
2022/05/14 00:01:17;;;;;;;0.00;0.00;;;18.00;94.40;;;;;;5025915;28;20030;-81
2022/05/14 00:03:44;;;;;;;0.00;0.00;;;18.00;94.50;;;;;;5033315;28;20025;-82
2022/05/14 00:06:16;;;;;;;0.00;0.00;;;17.90;93.90;;;;;;5032899;28;20104;-81
2022/05/14 00:08:42;;;;;;;0.00;0.00;;;17.90;94.20;;;;;;5018979;28;20058;-82
2022/05/14 00:13:54;;;;;;;0.00;0.00;;;17.80;92.60;;;;;;5018538;28;20029;-81
2022/05/14 00:16:21;;;;;;;0.00;0.00;;;17.80;93.10;;;;;;5033104;28;20029;-81
2022/05/14 00:18:47;;;;;;;0.00;0.00;;;17.80;92.60;;;;;;5015156;28;20018;-81
2022/05/14 00:21:15;;;;;;;0.00;0.00;;;17.80;92.70;;;;;;5018242;28;20026;-81
2022/05/14 00:23:41;;;;;;;0.00;0.00;;;17.70;92.60;;;;;;5019872;28;20013;-81
2022/05/14 00:26:07;;;;;;;0.00;0.00;;;17.70;92.20;;;;;;5016862;28;20029;-77
2022/05/14 00:28:34;;;;;;;0.00;0.00;;;17.60;92.20;;;;;;5016986;28;20201;-80
2022/05/14 00:30:59;;;;;;;0.00;0.00;;;17.50;91.00;;;;;;5018527;28;20033;-80
2022/05/14 00:33:25;;;;;;;0.00;0.00;;;17.50;91.40;;;;;;5016328;28;20022;-80
2022/05/14 00:35:51;;;;;;;0.00;0.00;;;17.50;92.30;;;;;;5033260;28;20022;-81
2022/05/14 00:38:17;;;;;;;0.00;0.00;;;17.50;91.90;;;;;;5032495;28;20026;-80
2022/05/14 00:40:54;;;;;;;0.00;0.00;;;17.50;91.80;;;;;;5018328;28;20029;-80
2022/05/14 00:43:20;;;;;;;0.00;0.00;;;17.40;91.70;;;;;;5016357;28;20029;-80
2022/05/14 00:45:55;;;;;;;0.00;0.00;;;17.50;92.30;;;;;;5018096;28;20018;-80
2022/05/14 00:48:23;;;;;;;0.00;0.00;;;17.50;93.10;;;;;;5016088;28;20036;-80
2022/05/14 00:50:55;;;;;;;0.00;0.00;;;17.40;93.00;;;;;;5018458;28;20076;-79
2022/05/14 00:53:36;;;;;;;0.00;0.00;;;17.40;92.50;;;;;;5015992;28;20033;-80
2022/05/14 00:56:07;;;;;;;0.00;0.00;;;17.40;92.60;;;;;;5016992;28;20052;-80
2022/05/14 00:58:46;;;;;;;0.00;0.00;;;17.40;92.70;;;;;;5016302;28;20026;-79
2022/05/14 01:01:12;;;;;;;0.00;0.00;;;17.40;93.30;;;;;;5032435;28;20021;-79
2022/05/14 01:03:38;;;;;;;0.00;0.00;;;17.30;92.80;;;;;;5018620;28;20025;-80
2022/05/14 01:06:08;;;;;;;0.00;0.00;;;17.30;91.70;;;;;;5036836;28;20022;-81
2022/05/14 01:08:35;;;;;;;0.00;0.00;;;17.30;93.10;;;;;;5021044;28;20065;-80
2022/05/14 01:11:01;;;;;;;0.00;0.00;;;17.30;93.00;;;;;;5040379;28;20025;-80
2022/05/14 01:13:28;;;;;;;0.00;0.00;;;17.20;92.90;;;;;;5039125;28;20438;-81
2022/05/14 01:15:57;;;;;;;0.00;0.00;;;17.20;91.50;;;;;;5039842;28;20022;-79
2022/05/14 01:18:26;;;;;;;0.00;0.00;;;17.20;93.00;;;;;;5036999;28;20045;-80
2022/05/14 01:21:04;;;;;;;0.00;0.00;;;17.20;92.60;;;;;;5021080;28;20069;-80
2022/05/14 01:26:35;;;;;;;0.00;0.00;;;17.10;91.60;;;;;;5020461;28;20053;-81
2022/05/14 01:29:19;;;;;;;0.00;0.00;;;17.10;92.50;;;;;;5017123;28;20017;-81
2022/05/14 01:31:45;;;;;;;0.00;0.00;;;17.10;92.10;;;;;;5019505;28;20109;-81
2022/05/14 01:34:18;;;;;;;0.00;0.00;;;17.10;92.30;;;;;;5027468;28;20158;-76
2022/05/14 01:36:44;;;;;;;0.00;0.00;;;17.00;92.80;;;;;;5031431;28;20322;-81
2022/05/14 01:39:10;;;;;;;0.00;0.00;;;17.00;92.00;;;;;;5055728;28;20066;-77
2022/05/14 01:41:36;;;;;;;0.00;0.00;;;17.00;92.30;;;;;;5028625;28;20044;-80
2022/05/14 01:44:02;;;;;;;0.00;0.00;;;16.90;91.50;;;;;;5025715;28;20052;-80
2022/05/14 01:46:28;;;;;;;0.00;0.00;;;16.90;90.90;;;;;;5038903;28;20409;-80
2022/05/14 01:48:53;;;;;;;0.00;0.00;;;16.80;91.20;;;;;;5041071;28;20058;-80
2022/05/14 01:51:19;;;;;;;0.00;0.00;;;16.80;91.50;;;;;;5036505;28;20133;-79
2022/05/14 01:53:46;;;;;;;0.00;0.00;;;16.80;91.60;;;;;;5035806;28;20021;-79
2022/05/14 01:56:12;;;;;;;0.00;0.00;;;16.80;91.30;;;;;;5027154;28;20021;-76
2022/05/14 01:58:37;;;;;;;0.00;0.00;;;16.70;90.80;;;;;;5028447;28;20144;-82
2022/05/14 02:01:31;;;;;;;0.00;0.00;;;16.70;90.70;;;;;;5035515;28;20052;-80
2022/05/14 02:04:03;;;;;;;0.00;0.00;;;16.60;90.90;;;;;;5017737;28;20040;-81
2022/05/14 02:06:30;;;;;;;0.00;0.00;;;16.60;90.50;;;;;;5035220;28;20119;-80
2022/05/14 02:08:56;;;;;;;0.00;0.00;;;16.60;90.40;;;;;;5036346;28;20046;-80
2022/05/14 02:11:23;;;;;;;0.00;0.00;;;16.50;90.60;;;;;;5018975;28;20432;-76
2022/05/14 02:13:50;;;;;;;0.00;0.00;;;16.50;91.00;;;;;;5024988;28;20188;-79
2022/05/14 02:16:16;;;;;;;0.00;0.00;;;16.50;91.20;;;;;;5013995;28;20017;-75
2022/05/14 02:18:42;;;;;;;0.00;0.00;;;16.50;91.10;;;;;;5021926;28;20114;-75
2022/05/14 02:21:09;;;;;;;0.00;0.00;;;16.50;91.60;;;;;;5018962;28;20124;-79
2022/05/14 02:23:37;;;;;;;0.00;0.00;;;16.40;91.70;;;;;;5020038;28;20057;-80
2022/05/14 02:26:05;;;;;;;0.00;0.00;;;16.40;92.30;;;;;;5028283;28;20048;-77
2022/05/14 02:28:31;;;;;;;0.00;0.00;;;16.40;91.90;;;;;;5021432;28;20112;-80
2022/05/14 02:30:57;;;;;;;0.00;0.00;;;16.40;91.10;;;;;;5022013;28;20033;-81
2022/05/14 02:33:23;;;;;;;0.00;0.00;;;16.30;91.60;;;;;;4997079;28;20183;-80
2022/05/14 02:35:48;;;;;;;0.00;0.00;;;16.30;91.40;;;;;;5013927;28;20181;-80
2022/05/14 02:38:15;;;;;;;0.00;0.00;;;16.20;91.20;;;;;;5012343;28;20101;-76
2022/05/14 02:40:42;;;;;;;0.00;0.00;;;16.20;91.00;;;;;;5011883;28;20289;-76
2022/05/14 02:43:27;;;;;;;0.00;0.00;;;16.20;92.10;;;;;;5022985;28;20090;-80
2022/05/14 02:45:52;;;;;;;0.00;0.00;;;16.20;92.70;;;;;;5033175;28;20106;-81
2022/05/14 02:48:18;;;;;;;0.00;0.00;;;16.20;92.60;;;;;;5031012;28;20125;-81
2022/05/14 02:50:44;;;;;;;0.00;0.00;;;16.20;92.20;;;;;;5019592;28;20025;-82
2022/05/14 02:53:10;;;;;;;0.00;0.00;;;16.20;92.40;;;;;;5019953;28;20045;-77
2022/05/14 02:55:36;;;;;;;0.00;0.00;;;16.20;92.90;;;;;;5036398;28;20037;-82
2022/05/14 02:58:02;;;;;;;0.00;0.00;;;16.20;92.70;;;;;;5037011;28;20021;-81
2022/05/14 03:00:28;;;;;;;0.00;0.00;;;16.10;92.80;;;;;;5034260;28;20036;-81
2022/05/14 03:02:54;;;;;;;0.00;0.00;;;16.10;93.10;;;;;;5019352;28;20323;-80
2022/05/14 03:05:22;;;;;;;0.00;0.00;;;16.10;93.00;;;;;;5019201;28;20036;-82
2022/05/14 03:07:48;;;;;;;0.00;0.00;;;16.10;93.70;;;;;;5024312;28;20291;-80
2022/05/14 03:10:15;;;;;;;0.00;0.00;;;16.10;93.30;;;;;;5019742;28;20293;-75
2022/05/14 03:12:41;;;;;;;0.00;0.00;;;16.00;93.30;;;;;;5020145;28;20018;-81
2022/05/14 03:15:08;;;;;;;0.00;0.00;;;16.00;93.20;;;;;;5019968;28;20045;-81
2022/05/14 03:17:35;;;;;;;0.00;0.00;;;16.10;92.90;;;;;;5019097;28;20346;-79
2022/05/14 03:20:20;;;;;;;0.00;0.00;;;16.10;92.50;;;;;;5042728;28;20265;-82
2022/05/14 03:22:46;;;;;;;0.00;0.00;;;16.00;92.80;;;;;;5035136;28;20022;-82
2022/05/14 03:25:12;;;;;;;0.00;0.00;;;16.10;94.10;;;;;;5017886;28;20028;-82
2022/05/14 03:27:38;;;;;;;0.00;0.00;;;16.00;93.80;;;;;;5016763;28;20111;-82
2022/05/14 03:30:04;;;;;;;0.00;0.00;;;16.00;94.10;;;;;;5018967;28;20296;-82
2022/05/14 03:32:30;;;;;;;0.00;0.00;;;16.00;92.70;;;;;;5018137;28;20033;-81
2022/05/14 03:34:58;;;;;;;0.00;0.00;;;16.00;92.80;;;;;;5017804;28;20276;-79
2022/05/14 03:37:24;;;;;;;0.00;0.00;;;16.00;93.50;;;;;;5018764;28;20276;-79
2022/05/14 03:39:50;;;;;;;0.00;0.00;;;16.00;93.30;;;;;;5033586;28;20288;-78
2022/05/14 03:42:16;;;;;;;0.00;0.00;;;16.00;93.30;;;;;;5037669;28;20064;-76
2022/05/14 03:44:41;;;;;;;0.00;0.00;;;16.00;93.40;;;;;;5031467;28;20289;-79
2022/05/14 03:47:07;;;;;;;0.00;0.00;;;15.90;92.80;;;;;;5017358;28;20112;-80
2022/05/14 03:49:33;;;;;;;0.00;0.00;;;16.00;93.20;;;;;;5033153;28;20168;-79
2022/05/14 03:51:59;;;;;;;0.00;0.00;;;15.90;92.10;;;;;;5032579;28;20178;-79
2022/05/14 03:54:24;;;;;;;0.00;0.00;;;15.90;91.90;;;;;;5017652;28;20030;-79
2022/05/14 03:56:50;;;;;;;0.00;0.00;;;15.90;92.30;;;;;;5018181;28;20376;-80
2022/05/14 03:59:16;;;;;;;0.00;0.00;;;15.90;92.70;;;;;;5031722;28;20376;-76
2022/05/14 04:01:41;;;;;;;0.00;0.00;;;15.80;92.80;;;;;;5018151;28;20143;-81
2022/05/14 04:04:07;;;;;;;0.00;0.00;;;15.80;92.40;;;;;;5018301;28;20128;-80
2022/05/14 04:06:34;;;;;;;0.00;0.00;;;15.90;93.30;;;;;;5016359;28;20289;-80
2022/05/14 04:09:01;;;;;;;0.00;0.00;;;15.90;93.70;;;;;;5032870;28;20049;-80
2022/05/14 04:11:27;;;;;;;0.00;0.00;;;15.90;93.70;;;;;;5013208;28;20025;-80
2022/05/14 04:13:53;;;;;;;0.00;0.00;;;15.90;92.90;;;;;;5013207;28;20035;-77
2022/05/14 04:16:19;;;;;;;0.00;0.00;;;15.90;93.10;;;;;;5025342;28;20049;-76
2022/05/14 04:18:44;;;;;;;0.00;0.00;;;15.90;93.10;;;;;;5014243;28;20132;-80
2022/05/14 04:21:10;;;;;;;0.00;0.00;;;15.90;93.60;;;;;;5026811;28;20159;-80
2022/05/14 04:23:36;;;;;;;0.00;0.00;;;16.00;94.00;;;;;;5011336;28;20097;-82
2022/05/14 04:26:02;;;;;;;0.00;0.00;;;16.00;93.90;;;;;;5016239;28;20139;-76
2022/05/14 04:28:28;;;;;;;0.00;0.00;;;16.00;94.10;;;;;;5020287;28;20105;-79
2022/05/14 04:30:56;;;;;;;0.00;0.00;;;16.00;93.30;;;;;;5021832;28;20074;-77
2022/05/14 04:33:24;;;;;;;0.00;0.00;;;16.00;95.00;;;;;;4999060;28;20490;-76
2022/05/14 04:35:50;;;;;;;0.00;0.00;;;16.10;94.40;;;;;;5022179;28;20025;-80
2022/05/14 04:38:16;;;;;;;0.00;0.00;;;16.10;93.80;;;;;;5020842;28;20032;-77
2022/05/14 04:40:44;;;;;;;0.00;0.00;;;16.10;94.60;;;;;;5024455;28;20331;-76
2022/05/14 04:43:10;;;;;;;0.00;0.00;;;16.10;94.30;;;;;;5015697;28;20212;-80
2022/05/14 04:45:38;;;;;;;0.00;0.00;;;16.10;93.30;;;;;;5023150;28;20584;-78
2022/05/14 04:48:05;;;;;;;0.00;0.00;;;16.10;93.40;;;;;;5019858;28;20100;-80
2022/05/14 04:50:31;;;;;;;0.00;0.00;;;16.10;94.20;;;;;;5042145;28;20076;-81
2022/05/14 04:52:57;;;;;;;0.00;0.00;;;16.10;93.70;;;;;;5042331;28;20040;-80
2022/05/14 04:55:23;;;;;;;0.00;0.00;;;16.10;94.30;;;;;;5025637;28;20285;-80
2022/05/14 04:57:49;;;;;;;0.00;0.00;;;16.10;94.10;;;;;;5036713;28;20026;-82
2022/05/14 05:00:15;;;;;;;0.00;0.00;;;16.10;92.90;;;;;;5021832;28;20022;-79
2022/05/14 05:05:29;;;;;;;0.00;0.00;;;16.10;93.70;;;;;;5038762;28;20032;-80
2022/05/14 05:07:55;;;;;;;0.00;0.00;;;16.20;93.60;;;;;;5020975;28;20053;-81
2022/05/14 05:10:21;;;;;;;0.00;0.00;;;16.10;93.70;;;;;;5020079;28;20241;-76
2022/05/14 05:12:47;;;;;;;0.00;0.00;;;16.20;93.80;;;;;;5021889;28;20057;-80
2022/05/14 05:15:13;;;;;;;0.00;0.00;;;16.20;92.30;;;;;;5020587;28;20091;-80
2022/05/14 05:17:40;;;;;;;0.00;0.00;;;16.10;93.00;;;;;;5019191;28;20026;-80
2022/05/14 05:20:07;;;;;;;0.00;0.00;;;16.20;93.30;;;;;;5020926;28;20204;-81
2022/05/14 05:22:32;;;;;;;0.00;0.00;;;16.20;93.20;;;;;;5021570;28;20212;-80
2022/05/14 05:24:58;;;;;;;0.00;0.00;;;16.20;93.50;;;;;;5043391;28;20037;-80
2022/05/14 05:27:24;;;;;;;0.00;0.00;;;16.30;93.70;;;;;;5041837;28;20154;-80
2022/05/14 05:29:49;;;;;;;0.00;0.00;;;16.30;92.80;;;;;;5024406;28;20022;-81
2022/05/14 05:32:16;;;;;;;0.00;0.00;;;16.20;91.70;;;;;;5020964;28;20090;-82
2022/05/14 05:34:41;;;;;;;0.00;0.00;;;16.30;92.60;;;;;;5038060;28;20029;-82
2022/05/14 05:37:07;;;;;;;0.00;0.00;;;16.30;92.90;;;;;;5042737;28;20025;-81
2022/05/14 05:39:33;;;;;;;0.00;0.00;;;16.30;94.80;;;;;;5038176;28;20030;-82
2022/05/14 05:41:59;;;;;;;0.00;0.00;;;16.40;93.60;;;;;;5019494;28;20292;-76
2022/05/14 05:44:27;;;;;;;0.00;0.00;;;16.40;93.90;;;;;;5020866;28;20018;-81
2022/05/14 05:46:54;;;;;;;0.00;0.00;;;16.50;93.80;;;;;;5019855;28;20257;-81
2022/05/14 05:49:20;;;;;;;0.00;0.00;;;16.50;93.20;;;;;;5036869;28;20241;-81
2022/05/14 05:51:46;;;;;;;0.00;0.00;;;16.50;93.00;;;;;;5021290;28;20021;-81
2022/05/14 05:56:57;;;;;;;0.00;0.00;;;16.60;93.80;;;;;;5020804;28;20328;-82
2022/05/14 05:59:24;;;;;;;0.00;0.00;;;16.60;93.90;;;;;;5018887;28;20217;-75
2022/05/14 06:04:38;;;;;;;0.00;0.00;;;16.60;92.60;;;;;;5020295;28;20308;-82
2022/05/14 06:07:04;;;;;;;0.00;0.00;;;16.60;91.60;;;;;;5019264;28;20036;-82
2022/05/14 06:09:30;;;;;;;0.00;0.00;;;16.60;92.80;;;;;;5020511;28;20113;-81
2022/05/14 06:11:58;;;;;;;0.00;0.00;;;16.70;92.90;;;;;;5021891;28;20022;-81
2022/05/14 06:14:25;;;;;;;0.00;0.00;;;16.90;92.40;;;;;;5034187;28;20045;-78
2022/05/14 06:16:52;;;;;;;0.00;0.00;;;17.30;92.00;;;;;;5039857;28;20074;-83
2022/05/14 06:19:18;;;;;;;0.00;0.00;;;17.80;91.70;;;;;;5040586;28;20025;-82
2022/05/14 06:21:44;;;;;;;0.00;0.00;;;18.30;91.50;;;;;;5035791;28;20140;-81
2022/05/14 06:24:10;;;;;;;0.00;0.00;;;18.90;91.40;;;;;;5018486;28;20041;-81
2022/05/14 06:26:37;;;;;;;0.00;0.00;;;19.70;91.20;;;;;;5038422;28;20018;-82
2022/05/14 06:29:04;;;;;;;0.00;0.00;;;20.30;91.50;;;;;;5021619;28;20320;-82
2022/05/14 06:31:30;;;;;;;0.00;0.00;;;20.80;90.10;;;;;;5037001;28;20026;-82
2022/05/14 06:33:56;;;;;;;0.00;0.00;;;21.10;87.10;;;;;;5020725;28;20028;-81
2022/05/14 06:36:22;;;;;;;0.00;0.00;;;21.20;85.40;;;;;;5018433;28;20101;-83
2022/05/14 06:38:47;;;;;;;0.00;0.00;;;21.70;88.20;;;;;;5020328;28;20034;-80
2022/05/14 06:41:15;;;;;;;0.00;0.00;;;22.00;84.90;;;;;;5020106;28;20201;-81
2022/05/14 06:43:41;;;;;;;0.00;0.00;;;22.30;82.30;;;;;;5033711;28;20032;-82
2022/05/14 06:46:07;;;;;;;0.00;0.00;;;22.50;79.70;;;;;;5020980;28;20103;-82
2022/05/14 06:48:34;;;;;;;0.00;0.00;;;22.50;80.30;;;;;;5034422;28;20100;-81
2022/05/14 06:51:03;;;;;;;0.00;0.00;;;22.90;80.80;;;;;;5018517;28;20053;-81
2022/05/14 06:53:29;;;;;;;0.00;0.00;;;23.10;79.00;;;;;;5017819;28;20022;-78
2022/05/14 06:55:57;;;;;;;0.00;0.00;;;23.30;79.60;;;;;;5019099;28;20021;-83
2022/05/14 06:58:30;;;;;;;0.00;0.00;;;23.70;80.10;;;;;;5016361;28;20033;-81
2022/05/14 07:00:56;;;;;;;0.00;0.00;;;23.70;77.50;;;;;;5020009;28;20088;-81
2022/05/14 07:08:51;;;;;;;0.00;0.00;;;22.70;71.90;;;;;;5018370;28;20103;-79
2022/05/14 07:11:17;;;;;;;0.00;0.00;;;22.30;73.70;;;;;;5018240;28;20309;-80
2022/05/14 07:13:42;;;;;;;0.00;0.00;;;21.60;74.70;;;;;;5028002;28;20017;-82
2022/05/14 07:16:08;;;;;;;0.00;0.00;;;21.30;76.80;;;;;;5053737;28;20033;-81
2022/05/14 07:18:34;;;;;;;0.00;0.00;;;20.90;76.00;;;;;;5035375;28;20131;-81
2022/05/14 07:21:00;;;;;;;0.00;0.00;;;20.60;75.80;;;;;;5019514;28;20025;-79
2022/05/14 07:23:26;;;;;;;0.00;0.00;;;20.30;76.10;;;;;;5020446;28;20384;-79
2022/05/14 07:25:51;;;;;;;0.00;0.00;;;20.10;77.00;;;;;;5033651;28;20024;-81
2022/05/14 07:28:18;;;;;;;0.00;0.00;;;20.00;77.90;;;;;;5020130;28;20021;-82
2022/05/14 07:30:44;;;;;;;0.00;0.00;;;19.80;77.80;;;;;;5020272;28;20017;-82
2022/05/14 07:33:10;;;;;;;0.00;0.00;;;19.70;78.80;;;;;;5017986;28;20347;-77
2022/05/14 07:35:36;;;;;;;0.00;0.00;;;19.80;85.40;;;;;;5018917;28;20021;-75
2022/05/14 07:38:05;;;;;;;0.00;0.00;;;19.90;83.30;;;;;;5019009;28;20022;-75
2022/05/14 07:40:33;;;;;;;0.00;0.00;;;20.00;84.90;;;;;;5014640;28;20301;-79
2022/05/14 07:43:08;;;;;;;0.00;0.00;;;20.10;85.10;;;;;;5018870;28;20044;-75
2022/05/14 07:45:44;;;;;;;0.00;0.00;;;20.10;83.20;;;;;;5017247;28;20038;-76
2022/05/14 07:48:16;;;;;;;0.00;0.00;;;20.10;82.40;;;;;;5032157;28;20273;-77
2022/05/14 07:50:42;;;;;;;0.00;0.00;;;20.20;79.40;;;;;;5022851;28;20213;-76
2022/05/14 07:53:08;;;;;;;0.00;0.00;;;20.20;84.30;;;;;;5019250;28;20075;-75
2022/05/14 07:55:34;;;;;;;0.00;0.00;;;20.20;88.20;;;;;;5017995;28;20316;-76
2022/05/14 07:58:00;;;;;;;0.00;0.00;;;20.30;87.90;;;;;;5033922;28;20030;-75
2022/05/14 08:00:26;;;;;;;0.00;0.00;;;20.30;85.60;;;;;;5018728;28;20126;-76
2022/05/14 08:02:52;;;;;;;0.00;0.00;;;20.50;87.10;;;;;;5017965;28;20108;-76
2022/05/14 08:05:21;;;;;;;0.00;0.00;;;20.40;82.50;;;;;;5034333;28;20018;-75
2022/05/14 08:07:50;;;;;;;0.00;0.00;;;20.40;81.50;;;;;;5028102;28;20042;-76
2022/05/14 08:10:16;;;;;;;0.00;0.00;;;20.50;84.80;;;;;;5020739;28;20034;-76
2022/05/14 08:12:50;;;;;;;0.00;0.00;;;20.60;84.80;;;;;;5007591;28;20110;-75
2022/05/14 08:15:16;;;;;;;0.00;0.00;;;20.50;86.10;;;;;;5022203;28;20029;-77
2022/05/14 08:17:43;;;;;;;0.00;0.00;;;20.60;87.70;;;;;;5019890;28;20093;-76
2022/05/14 08:20:10;;;;;;;0.00;0.00;;;20.60;84.80;;;;;;5027998;28;20705;-76
2022/05/14 08:25:20;;;;;;;0.00;0.00;;;21.00;85.50;;;;;;5026701;28;20534;-75
2022/05/14 08:27:47;;;;;;;0.00;0.00;;;21.40;86.10;;;;;;5021017;28;20025;-76
2022/05/14 08:30:24;;;;;;;0.00;0.00;;;21.80;85.70;;;;;;5022307;28;20086;-76
2022/05/14 08:32:50;;;;;;;0.00;0.00;;;22.30;76.80;;;;;;5038507;28;20021;-75
2022/05/14 08:35:18;;;;;;;0.00;0.00;;;23.40;82.00;;;;;;5028637;28;20029;-77
2022/05/14 08:37:44;;;;;;;0.00;0.00;;;24.40;80.60;;;;;;5015849;28;20025;-76
2022/05/14 08:40:18;;;;;;;0.00;0.00;;;25.60;77.50;;;;;;5015188;28;20544;-75
2022/05/14 08:42:47;;;;;;;0.00;0.00;;;26.60;69.60;;;;;;5017370;28;20061;-76
2022/05/14 08:45:15;;;;;;;0.00;0.00;;;27.30;66.00;;;;;;5026622;28;20109;-75
2022/05/14 08:47:52;;;;;;;0.00;0.00;;;27.90;68.60;;;;;;5030536;28;20033;-76
2022/05/14 08:50:19;;;;;;;0.00;0.00;;;28.70;69.60;;;;;;5005421;28;20108;-76
2022/05/14 08:52:44;;;;;;;0.00;0.00;;;29.30;66.50;;;;;;5029545;28;20034;-76
2022/05/14 08:55:16;;;;;;;0.00;0.00;;;30.00;63.00;;;;;;5024553;28;20194;-76
2022/05/14 08:58:04;;;;;;;0.00;0.00;;;30.20;59.20;;;;;;5017414;28;20061;-75
2022/05/14 09:00:29;;;;;;;0.00;0.00;;;30.50;57.20;;;;;;5020715;28;20085;-75
2022/05/14 09:02:55;;;;;;;0.00;0.00;;;30.90;56.20;;;;;;5020598;28;20108;-75
2022/05/14 09:05:24;;;;;;;0.00;0.00;;;30.60;54.80;;;;;;5026574;28;20112;-76
2022/05/14 09:07:50;;;;;;;0.00;0.00;;;30.80;55.70;;;;;;5024893;28;20308;-76
2022/05/14 09:10:39;;;;;;;0.00;0.00;;;31.00;57.70;;;;;;5019484;28;20197;-75
2022/05/14 09:13:20;;;;;;;0.00;0.00;;;32.00;55.90;;;;;;5021824;28;20066;-77
2022/05/14 09:15:50;;;;;;;0.00;0.00;;;32.70;55.80;;;;;;5021490;28;20100;-76
2022/05/14 09:18:44;;;;;;;0.00;0.00;;;32.60;54.40;;;;;;5020109;28;20097;-75
2022/05/14 09:21:21;;;;;;;0.00;0.00;;;31.20;53.40;;;;;;5035552;28;20045;-80
2022/05/14 09:23:51;;;;;;;;;;;30.80;49.90;;;;;;5020525;28;20018;-80
2022/05/14 09:26:34;;;;;;;0.00;0.00;;;30.40;50.30;;;;;;5036131;28;19961;-81
2022/05/14 09:29:22;;;;;;;0.00;0.00;;;30.00;49.90;;;;;;5021632;28;20297;-80
2022/05/14 09:32:10;;;;;;;0.00;0.00;;;30.20;50.80;;;;;;5021305;28;20025;-81
2022/05/14 09:34:36;;;;;;;0.00;0.00;;;30.10;50.70;;;;;;4999631;28;20100;-80
2022/05/14 09:37:18;;;;;;;0.00;0.00;;;30.80;49.10;;;;;;5036960;28;20021;-83
2022/05/14 09:40:07;;;;;;;0.00;0.00;;;31.00;48.60;;;;;;5019416;28;20085;-84
2022/05/14 09:42:44;;;;;;;0.00;0.00;;;31.00;48.40;;;;;;5019824;28;20021;-77
2022/05/14 09:45:25;;;;;;;0.00;0.00;;;30.90;50.50;;;;;;5009943;28;20081;-81
2022/05/14 09:47:51;;;;;;;0.00;0.00;;;31.10;47.40;;;;;;5011835;28;20456;-80
2022/05/14 09:50:22;;;;;;;0.00;0.00;;;31.20;46.90;;;;;;5009018;28;20170;-77
2022/05/14 09:53:01;;;;;;;0.00;0.00;;;31.50;45.90;;;;;;4997344;28;20015;-79
2022/05/14 09:55:37;;;;;;;0.00;0.00;;;31.50;46.20;;;;;;4998890;28;20268;-76
2022/05/14 09:58:35;;;;;;;0.00;0.00;;;31.50;45.80;;;;;;5003516;28;20038;-80
2022/05/14 10:01:10;;;;;;;0.00;0.00;;;31.60;47.90;;;;;;5018270;28;20104;-77
2022/05/14 10:03:42;;;;;;;0.00;0.00;;;31.90;46.90;;;;;;5000757;28;20033;-77
2022/05/14 10:06:08;;;;;;;0.00;0.00;;;32.20;46.20;;;;;;5008140;28;20026;-78
2022/05/14 10:08:48;;;;;;;0.00;0.00;;;32.20;45.40;;;;;;5002398;28;20251;-77
2022/05/14 10:11:34;;;;;;;0.00;0.00;;;32.30;45.70;;;;;;5009757;28;20085;-78
2022/05/14 10:14:13;;;;;;;0.00;0.00;;;32.40;45.20;;;;;;5000608;28;20030;-80
2022/05/14 10:17:03;;;;;;;0.00;0.00;;;32.70;45.30;;;;;;4998211;28;20727;-79
2022/05/14 10:19:35;;;;;;;0.00;0.00;;;32.50;44.20;;;;;;4998764;28;20085;-78
2022/05/14 10:22:23;;;;;;;0.00;0.00;;;32.50;44.60;;;;;;4999691;28;20030;-79
2022/05/14 10:28:31;;;;;;;0.00;0.00;;;32.50;44.00;;;;;;5003215;28;20108;-79
2022/05/14 10:31:18;;;;;;;0.00;0.00;;;32.80;45.60;;;;;;5013017;28;20042;-79
2022/05/14 10:33:47;;;;;;;0.00;0.00;;;32.40;43.70;;;;;;5001385;28;20077;-78
2022/05/14 10:36:28;;;;;;;0.00;0.00;;;32.50;43.10;;;;;;5000558;28;20057;-73
2022/05/14 10:39:17;;;;;;;0.00;0.00;;;31.50;43.30;;;;;;5002889;28;20136;-73
2022/05/14 10:41:46;;;;;;;0.00;0.00;;;29.10;46.60;;;;;;4995337;28;20177;-73
2022/05/14 10:44:38;;;;;;;0.00;0.00;;;28.30;47.80;;;;;;4999756;28;20262;-74
2022/05/14 10:47:24;;;;;;;0.00;0.00;;;28.00;47.90;;;;;;5017401;28;20094;-73
2022/05/14 10:49:57;;;;;;;0.00;0.00;;;28.60;48.40;;;;;;4995392;28;20296;-73
2022/05/14 10:52:23;;;;;;;0.00;0.00;;;28.00;47.80;;;;;;5020295;28;20053;-72
2022/05/14 10:54:49;;;;;;;0.00;0.00;;;27.40;49.10;;;;;;4995629;28;20022;-71
2022/05/14 10:57:14;;;;;;;0.00;0.00;;;27.20;50.10;;;;;;4995861;28;20084;-71
2022/05/14 10:59:45;;;;;;;0.00;0.00;;;27.70;50.00;;;;;;4990942;28;20030;-72
2022/05/14 11:02:11;;;;;;;0.00;0.00;;;28.40;49.30;;;;;;5014849;28;20045;-70
2022/05/14 11:04:48;;;;;;;0.00;0.00;;;29.40;48.70;;;;;;4991806;28;20125;-70
2022/05/14 11:07:36;;;;;;;0.00;0.00;;;30.00;47.70;;;;;;5000034;28;20072;-79
2022/05/14 11:10:40;;;;;;;0.00;0.00;;;30.80;53.70;;;;;;5013216;28;20266;-80
2022/05/14 11:13:24;;;;;;;0.00;0.00;;;31.20;54.20;;;;;;4986662;28;20035;-78
2022/05/14 11:16:19;;;;;;;0.00;0.00;;;33.90;48.70;;;;;;5000006;28;20491;-78
2022/05/14 11:18:54;;;;;;;0.00;0.00;;;34.80;46.00;;;;;;4976422;28;20053;-78
2022/05/14 11:21:33;;;;;;;0.00;0.00;;;34.60;47.00;;;;;;4996559;28;20022;-79
2022/05/14 11:24:00;;;;;;;0.00;0.00;;;35.20;49.10;;;;;;4995296;28;20030;-81
2022/05/14 11:26:27;;;;;;;0.00;0.00;;;35.00;45.00;;;;;;5011087;28;20056;-78
2022/05/14 11:29:15;;;;;;;0.00;0.00;;;34.60;46.70;;;;;;5002111;28;20030;-80
2022/05/14 11:32:02;;;;;;;0.00;0.00;;;32.70;47.30;;;;;;5015686;28;20038;-80
2022/05/14 11:34:27;;;;;;;0.00;0.00;;;32.80;48.90;;;;;;4999873;28;20018;-81
2022/05/14 11:36:59;;;;;;;0.00;0.00;;;32.70;49.70;;;;;;5030827;28;20029;-81
2022/05/14 11:39:37;;;;;;;0.00;0.00;;;32.30;49.90;;;;;;5039108;28;20029;-81
2022/05/14 11:42:09;;;;;;;0.00;0.00;;;32.30;44.60;;;;;;5019646;28;20315;-81
2022/05/14 11:44:42;;;;;;;0.00;0.00;;;31.80;47.60;;;;;;5019531;28;20018;-80
2022/05/14 11:47:31;;;;;;;0.00;0.00;;;31.20;46.20;;;;;;5021759;28;20014;-81
2022/05/14 11:49:58;;;;;;;0.00;0.00;;;30.20;49.70;;;;;;5001815;28;20018;-81
2022/05/14 11:52:30;;;;;;;0.00;0.00;;;29.30;50.80;;;;;;5002166;28;20037;-80
2022/05/14 11:55:19;;;;;;;0.00;0.00;;;28.00;52.70;;;;;;5002996;28;20014;-82
2022/05/14 11:57:55;;;;;;;0.00;0.00;;;27.70;52.10;;;;;;5001981;28;20061;-82
2022/05/14 12:00:33;;;;;;;0.00;0.00;;;27.20;51.60;;;;;;5018550;28;20017;-83
2022/05/14 12:03:03;;;;;;;0.00;0.00;;;26.80;52.00;;;;;;5039855;28;20029;-82
2022/05/14 12:05:35;;;;;;;0.00;0.00;;;26.50;54.60;;;;;;5041320;28;20032;-82
2022/05/14 12:08:22;;;;;;;0.00;0.00;;;26.20;52.90;;;;;;5041417;28;20137;-81
2022/05/14 12:10:57;;;;;;;0.00;0.00;;;25.90;52.90;;;;;;5040637;28;20021;-81
2022/05/14 12:13:48;;;;;;;0.00;0.00;;;25.50;55.60;;;;;;5023740;28;20095;-81
2022/05/14 12:16:32;;;;;;;0.00;0.00;;;25.10;56.30;;;;;;5020369;28;20013;-82
2022/05/14 12:19:00;;;;;;;0.00;0.00;;;25.00;55.20;;;;;;5019527;28;20076;-81
2022/05/14 12:21:25;;;;;;;0.00;0.00;;;24.90;55.00;;;;;;5018613;28;20241;-82
2022/05/14 12:23:51;;;;;;;0.00;0.00;;;24.90;55.90;;;;;;5019722;28;20096;-80
2022/05/14 12:26:25;;;;;;;0.00;0.00;;;24.80;59.70;;;;;;5018360;28;20188;-81
2022/05/14 12:28:53;;;;;;;0.00;0.00;;;24.80;58.20;;;;;;5034208;28;20070;-81
2022/05/14 12:34:40;;;;;;;0.00;0.00;;;24.40;56.60;;;;;;4997775;28;20018;-78
2022/05/14 12:37:17;;;;;;;0.00;0.00;;;24.30;58.00;;;;;;4998332;28;20071;-79
2022/05/14 12:39:44;;;;;;;0.00;0.00;;;24.10;58.00;;;;;;4999881;28;20133;-81
2022/05/14 12:42:11;;;;;;;0.00;0.00;;;24.10;59.00;;;;;;5019693;28;20265;-81
2022/05/14 12:44:42;;;;;;;0.00;0.00;;;24.10;60.00;;;;;;5019349;28;20072;-82
2022/05/14 12:49:53;;;;;;;0.00;0.00;;;24.00;59.30;;;;;;5030260;28;20075;-82
2022/05/14 12:52:28;;;;;;;0.00;0.00;;;24.00;59.30;;;;;;5037657;28;20308;-82
2022/05/14 12:55:05;;;;;;;0.00;0.00;;;23.90;59.30;;;;;;5038430;28;20352;-82
2022/05/14 12:57:33;;;;;;;0.00;0.00;;;24.00;60.90;;;;;;5037433;28;20200;-83
2022/05/14 13:00:00;;;;;;;0.00;0.00;;;24.00;59.00;;;;;;5038653;28;20109;-82
2022/05/14 13:02:27;;;;;;;0.00;0.00;;;24.00;58.60;;;;;;5038913;28;20180;-81
2022/05/14 13:05:20;;;;;;;0.00;0.00;;;24.00;62.00;;;;;;5037710;28;20041;-81
2022/05/14 13:07:56;;;;;;;0.00;0.00;;;24.00;63.00;;;;;;5021699;28;20034;-80
2022/05/14 13:10:26;;;;;;;0.00;0.00;;;24.10;57.80;;;;;;5037931;28;20045;-81
2022/05/14 13:12:56;;;;;;;0.00;0.00;;;24.00;60.30;;;;;;5022210;28;20292;-80
2022/05/14 13:15:34;;;;;;;0.00;0.00;;;24.00;59.30;;;;;;5039678;28;20051;-81
2022/05/14 13:18:21;;;;;;;0.00;0.00;;;24.00;62.20;;;;;;5040942;28;20287;-81
2022/05/14 13:20:55;;;;;;;0.00;0.00;;;24.00;63.30;;;;;;5042060;28;20028;-81
2022/05/14 13:23:21;;;;;;;0.00;0.00;;;24.00;61.60;;;;;;5042802;28;20032;-81
2022/05/14 13:26:31;;;;;;;0.00;0.00;;;24.00;63.90;;;;;;5039028;28;20083;-83
2022/05/14 13:29:41;;;;;;;0.00;0.00;;;24.00;65.30;;;;;;5034222;28;20108;-83
2022/05/14 13:32:21;;;;;;;0.00;0.00;;;24.00;62.90;;;;;;5057913;28;20036;-83
2022/05/14 13:37:37;;;;;;;0.00;0.00;;;24.00;63.00;;;;;;5042447;28;20324;-82
2022/05/14 13:40:24;;;;;;;0.00;0.00;;;24.00;63.60;;;;;;5021512;28;20037;-81